createdAt,value
2022-10-09T00:02:01.298Z,101900.84
2022-10-09T00:04:48.769Z,101895.59
2022-10-09T00:07:41.876Z,101903.53
2022-10-09T00:10:28.904Z,101900.91
2022-10-09T00:13:18.128Z,101907.06
2022-10-09T00:16:06.762Z,101912.31
2022-10-09T00:18:55.839Z,101913.22
2022-10-09T00:21:45.117Z,101916.75
2022-10-09T00:24:38.055Z,101922.03
2022-10-09T00:27:27.463Z,101922.91
2022-10-09T00:30:15.042Z,101925.56
2022-10-09T00:33:03.832Z,101922.91
2022-10-09T00:35:58.037Z,101922.91
2022-10-09T00:38:44.748Z,101931.69
2022-10-09T00:41:38.149Z,101929.97
2022-10-09T00:45:01.482Z,101936.13
2022-10-09T00:48:09.496Z,101938.78
2022-10-09T00:51:01.609Z,101943.19
2022-10-09T00:53:48.933Z,101945.81
2022-10-09T00:56:39.858Z,101948.47
2022-10-09T00:59:27.275Z,101951.09
2022-10-09T01:02:17.094Z,101945.81
2022-10-09T01:05:05.635Z,101952.88
2022-10-09T01:08:04.726Z,101950.25
2022-10-09T01:11:01.861Z,101951.16
2022-10-09T01:14:04.189Z,101961.72
2022-10-09T01:17:06.589Z,101963.47
2022-10-09T01:20:27.542Z,101969.63
2022-10-09T01:23:49.977Z,101927.47
2022-10-09T01:30:11.874Z,101979.31
2022-10-09T01:33:04.132Z,101975.78
2022-10-09T01:35:51.500Z,101978.44
2022-10-09T01:38:56.377Z,101979.31
2022-10-09T01:41:43.739Z,101984.59
2022-10-09T01:44:41.271Z,101980.19
2022-10-09T01:47:28.801Z,101984.56
2022-10-09T01:50:27.660Z,101984.56
2022-10-09T01:53:29.718Z,101985.44
2022-10-09T01:56:25.809Z,101986.31
2022-10-09T01:59:21.394Z,101985.41
2022-10-09T02:02:12.716Z,101988.91
2022-10-09T02:05:04.709Z,101988.91
2022-10-09T02:07:52.002Z,101994.16
2022-10-09T02:10:39.981Z,102001.16
2022-10-09T02:13:27.183Z,101974.75
2022-10-09T02:16:25.675Z,102001.09
2022-10-09T02:19:18.801Z,102001.94
2022-10-09T02:22:20.100Z,102003.66
2022-10-09T02:25:27.454Z,102000.09
2022-10-09T02:28:20.144Z,102007.97
2022-10-09T02:31:26.857Z,102019.38
2022-10-09T02:34:37.697Z,102026.41
2022-10-09T02:37:26.651Z,102023.75
2022-10-09T02:40:15.479Z,102024.66
2022-10-09T02:43:04.369Z,102025.50
2022-10-09T02:45:50.819Z,102029.00
2022-10-09T02:48:37.908Z,102027.25
2022-10-09T02:51:27.549Z,102024.63
2022-10-09T02:54:16.821Z,102028.09
2022-10-09T02:57:04.074Z,102028.13
2022-10-09T02:59:50.579Z,102035.19
2022-10-09T03:02:38.079Z,102033.41
2022-10-09T03:05:32.344Z,102030.75
2022-10-09T03:08:22.632Z,102038.59
2022-10-09T03:11:12.511Z,102034.16
2022-10-09T03:14:01.284Z,102035.88
2022-10-09T03:16:52.302Z,102045.53
2022-10-09T03:19:38.776Z,102044.59
2022-10-09T03:22:25.750Z,102052.47
2022-10-09T03:25:16.413Z,102049.81
2022-10-09T03:28:27.873Z,102048.84
2022-10-09T03:31:50.681Z,102059.28
2022-10-09T03:34:33.996Z,102056.56
2022-10-09T03:37:21.445Z,102055.66
2022-10-09T03:40:15.883Z,102056.44
2022-10-09T03:46:16.343Z,102059.03
2022-10-09T03:49:04.035Z,102061.59
2022-10-09T03:51:53.040Z,102066.81
2022-10-09T03:54:41.074Z,102056.22
2022-10-09T03:57:32.311Z,102065.81
2022-10-09T04:00:22.666Z,102061.38
2022-10-09T04:03:13.636Z,102068.41
2022-10-09T04:06:06.319Z,102071.94
2022-10-09T04:08:52.958Z,102073.69
2022-10-09T04:11:40.043Z,102082.56
2022-10-09T04:14:29.062Z,102079.84
2022-10-09T04:17:24.413Z,102084.09
2022-10-09T04:20:13.730Z,102089.25
2022-10-09T04:23:00.280Z,102078.63
2022-10-09T04:25:47.697Z,102086.44
2022-10-09T04:28:36.991Z,102088.16
2022-10-09T04:31:23.794Z,102091.66
2022-10-09T04:34:19.289Z,102101.28
2022-10-09T04:37:06.017Z,102105.72
2022-10-09T04:39:57.273Z,102105.81
2022-10-09T04:42:43.946Z,102104.88
2022-10-09T04:45:30.838Z,102104.84
2022-10-09T04:48:19.856Z,102104.72
2022-10-09T04:51:13.783Z,102098.53
2022-10-09T04:54:02.514Z,102102.06
2022-10-09T04:56:51.513Z,102106.50
2022-10-09T04:59:37.958Z,102104.78
2022-10-09T05:02:27.406Z,102110.88
2022-10-09T05:05:17.505Z,102113.41
2022-10-09T05:08:12.981Z,102110.75
2022-10-09T05:11:02.442Z,102113.38
2022-10-09T05:13:52.608Z,102120.41
2022-10-09T05:17:08.168Z,102114.19
2022-10-09T05:19:52.401Z,102115.91
2022-10-09T05:22:41.010Z,102111.47
2022-10-09T05:26:17.705Z,102122.06
2022-10-09T05:29:07.919Z,102125.66
2022-10-09T05:32:00.681Z,102128.31
2022-10-09T05:34:50.243Z,102131.81
2022-10-09T05:38:01.846Z,102134.44
2022-10-09T05:41:08.426Z,102143.16
2022-10-09T05:43:57.384Z,102141.31
2022-10-09T05:46:45.477Z,102143.84
2022-10-09T05:49:34.358Z,102139.50
2022-10-09T05:52:20.809Z,102144.81
2022-10-09T05:55:11.534Z,102152.69
2022-10-09T05:57:58.014Z,102153.56
2022-10-09T06:00:52.469Z,102155.31
2022-10-09T06:03:48.285Z,102154.47
2022-10-09T06:06:45.036Z,102157.16
2022-10-09T06:09:31.556Z,102158.09
2022-10-09T06:12:19.081Z,102160.84
2022-10-09T06:15:07.967Z,102161.88
2022-10-09T06:18:21.879Z,102176.91
2022-10-09T06:21:12.944Z,102175.22
2022-10-09T06:24:06.097Z,102185.84
2022-10-09T06:26:53.113Z,102189.56
2022-10-09T06:29:42.334Z,102190.47
2022-10-09T06:32:28.820Z,102184.53
2022-10-09T06:35:15.714Z,102182.13
2022-10-09T06:38:06.172Z,102190.94
2022-10-09T06:40:52.592Z,102195.38
2022-10-09T06:43:58.343Z,102198.97
2022-10-09T06:46:52.739Z,102203.53
2022-10-09T06:49:47.528Z,102201.88
2022-10-09T06:52:34.068Z,102204.56
2022-10-09T06:55:26.407Z,102217.84
2022-10-09T06:58:43.310Z,102212.72
2022-10-09T07:01:50.024Z,102218.91
2022-10-09T07:04:37.093Z,102218.06
2022-10-09T07:07:26.925Z,102222.47
2022-10-09T07:10:25.098Z,102223.47
2022-10-09T07:13:21.924Z,102213.78
2022-10-09T07:16:08.947Z,102220.03
2022-10-09T07:19:02.409Z,102221.84
2022-10-09T07:22:26.763Z,102226.28
2022-10-09T07:25:44.014Z,102229.88
2022-10-09T07:28:32.608Z,102228.13
2022-10-09T07:31:19.189Z,102237.78
2022-10-09T07:34:08.506Z,102232.59
2022-10-09T07:37:01.081Z,102238.72
2022-10-09T07:39:51.381Z,102240.56
2022-10-09T07:42:40.428Z,102243.19
2022-10-09T07:45:36.043Z,102238.81
2022-10-09T07:48:23.167Z,102237.00
2022-10-09T07:51:21.216Z,102250.16
2022-10-09T07:54:07.712Z,102243.09
2022-10-09T07:56:54.656Z,102245.66
2022-10-09T07:59:49.570Z,102247.41
2022-10-09T08:02:38.640Z,102253.53
2022-10-09T08:05:28.577Z,102254.47
2022-10-09T08:08:14.941Z,102257.94
2022-10-09T08:11:11.124Z,102261.53
2022-10-09T08:14:02.477Z,102258.03
2022-10-09T08:16:49.176Z,102266.81
2022-10-09T08:19:39.563Z,102259.69
2022-10-09T08:22:35.643Z,102252.59
2022-10-09T08:25:24.351Z,102267.47
2022-10-09T08:28:11.066Z,102269.28
2022-10-09T08:30:59.287Z,102274.47
2022-10-09T08:33:46.437Z,102273.50
2022-10-09T08:36:36.763Z,102269.97
2022-10-09T08:39:23.990Z,102276.06
2022-10-09T08:42:54.906Z,102272.47
2022-10-09T08:45:45.113Z,102273.31
2022-10-09T08:48:47.755Z,102270.66
2022-10-09T08:51:46.374Z,102271.53
2022-10-09T08:54:51.989Z,102271.41
2022-10-09T08:57:41.039Z,102273.94
2022-10-09T09:00:51.073Z,102276.38
2022-10-09T09:04:11.110Z,102277.94
2022-10-09T09:07:27.387Z,102277.94
2022-10-09T09:10:37.327Z,102273.13
2022-10-09T09:13:57.363Z,102281.09
2022-10-09T09:17:18.438Z,102277.47
2022-10-09T09:20:14.799Z,102274.59
2022-10-09T09:23:03.243Z,102273.56
2022-10-09T09:25:50.124Z,102272.38
2022-10-09T09:28:37.111Z,102271.69
2022-10-09T09:31:27.391Z,102269.69
2022-10-09T09:34:18.170Z,102268.63
2022-10-09T09:37:04.938Z,102264.00
2022-10-09T09:40:35.496Z,102266.34
2022-10-09T09:43:04.853Z,102258.25
2022-10-09T09:45:54.402Z,102263.47
2022-10-09T09:48:43.592Z,102268.59
2022-10-09T09:51:33.410Z,102260.50
2022-10-09T09:54:23.137Z,102259.59
2022-10-09T09:57:18.214Z,102255.59
2022-10-09T10:00:24.706Z,102252.78
2022-10-09T10:03:14.689Z,102246.41
2022-10-09T10:06:01.840Z,102245.06
2022-10-09T10:09:00.256Z,102248.19
2022-10-09T10:11:49.899Z,102244.94
2022-10-09T10:14:38.032Z,102233.69
2022-10-09T10:17:30.260Z,102243.06
2022-10-09T10:20:18.234Z,102236.47
2022-10-09T10:23:04.892Z,102238.88
2022-10-09T10:25:54.733Z,102233.16
2022-10-09T10:28:50.105Z,102232.97
2022-10-09T10:31:46.029Z,102231.34
2022-10-09T10:34:38.659Z,102228.78
2022-10-09T10:37:31.848Z,102231.34
2022-10-09T10:40:23.561Z,102226.72
2022-10-09T10:43:27.794Z,102241.75
2022-10-09T10:46:24.611Z,102231.25
2022-10-09T10:49:12.987Z,102224.34
2022-10-09T10:52:12.395Z,102213.88
2022-10-09T10:55:05.114Z,102224.91
2022-10-09T10:57:57.076Z,102224.59
2022-10-09T11:00:53.710Z,102220.16
2022-10-09T11:04:09.360Z,102215.28
2022-10-09T11:07:07.631Z,102209.63
2022-10-09T11:10:03.924Z,102214.59
2022-10-09T11:12:56.221Z,102201.72
2022-10-09T11:15:54.974Z,102194.56
2022-10-09T11:18:59.029Z,102199.28
2022-10-09T11:21:57.830Z,102200.00
2022-10-09T11:25:03.976Z,102193.28
2022-10-09T11:27:55.829Z,102197.88
2022-10-09T11:30:46.314Z,102193.28
2022-10-09T11:33:37.924Z,102192.25
2022-10-09T11:36:33.171Z,102189.41
2022-10-09T11:39:23.710Z,102178.59
2022-10-09T11:42:16.065Z,102186.78
2022-10-09T11:45:17.528Z,102188.44
2022-10-09T11:48:11.260Z,102168.78
2022-10-09T11:51:03.873Z,102166.19
2022-10-09T11:53:53.423Z,102168.84
2022-10-09T11:56:40.037Z,102164.28
2022-10-09T11:59:31.401Z,102159.53
2022-10-09T12:02:26.932Z,102155.25
2022-10-09T12:05:19.391Z,102158.41
2022-10-09T12:08:16.997Z,102152.78
2022-10-09T12:11:14.499Z,102150.41
2022-10-09T12:14:02.676Z,102147.81
2022-10-09T12:16:50.771Z,102144.47
2022-10-09T12:19:40.634Z,102147.69
2022-10-09T12:22:31.680Z,102146.03
2022-10-09T12:25:26.270Z,102141.63
2022-10-09T12:28:21.790Z,102148.81
2022-10-09T12:31:18.595Z,102145.94
2022-10-09T12:34:18.808Z,102131.63
2022-10-09T12:37:12.536Z,102129.06
2022-10-09T12:40:08.875Z,102125.50
2022-10-09T12:42:57.423Z,102110.22
2022-10-09T12:45:54.870Z,102114.50
2022-10-09T12:48:45.929Z,102108.78
2022-10-09T12:51:35.223Z,102114.31
2022-10-09T12:54:22.333Z,102112.22
2022-10-09T12:57:15.608Z,102108.91
2022-10-09T13:00:02.699Z,102104.41
2022-10-09T13:02:49.457Z,102104.38
2022-10-09T13:05:38.309Z,102112.34
2022-10-09T13:08:29.044Z,102098.56
2022-10-09T13:11:22.997Z,102095.22
2022-10-09T13:14:25.677Z,102088.75
2022-10-09T13:17:25.172Z,102095.69
2022-10-09T13:20:26.375Z,102085.19
2022-10-09T13:23:29.839Z,102096.06
2022-10-09T13:26:23.890Z,102092.19
2022-10-09T13:29:12.840Z,102088.03
2022-10-09T13:31:59.752Z,102090.44
2022-10-09T13:34:46.778Z,102080.69
2022-10-09T13:37:33.602Z,102080.78
2022-10-09T13:40:22.462Z,102061.09
2022-10-09T13:43:12.617Z,102070.16
2022-10-09T13:45:59.845Z,102073.59
2022-10-09T13:48:46.643Z,102061.34
2022-10-09T13:51:33.246Z,102075.06
2022-10-09T13:54:20.032Z,102071.63
2022-10-09T13:57:08.267Z,102069.72
2022-10-09T13:59:54.997Z,102070.63
2022-10-09T14:02:41.759Z,102071.09
2022-10-09T14:05:28.308Z,102069.16
2022-10-09T14:08:15.175Z,102068.50
2022-10-09T14:11:02.336Z,102060.34
2022-10-09T14:13:50.413Z,102062.63
2022-10-09T14:16:37.192Z,102060.44
2022-10-09T14:19:27.547Z,102063.22
2022-10-09T14:22:17.301Z,102057.19
2022-10-09T14:25:04.849Z,102047.56
2022-10-09T14:27:51.431Z,102052.16
2022-10-09T14:30:42.789Z,102040.06
2022-10-09T14:33:29.497Z,102045.59
2022-10-09T14:36:20.237Z,102042.16
2022-10-09T14:39:07.058Z,102043.88
2022-10-09T14:41:53.832Z,102039.59
2022-10-09T14:44:40.904Z,102036.03
2022-10-09T14:47:28.790Z,102027.88
2022-10-09T14:50:15.573Z,102033.41
2022-10-09T14:53:02.370Z,102031.91
2022-10-09T14:55:49.145Z,102030.38
2022-10-09T14:58:37.633Z,102033.19
2022-10-09T15:01:24.892Z,102028.81
2022-10-09T15:04:14.349Z,102031.53
2022-10-09T15:07:00.727Z,102022.19
2022-10-09T15:09:47.587Z,102022.47
2022-10-09T15:12:34.272Z,102016.28
2022-10-09T15:15:21.042Z,102017.47
2022-10-09T15:18:07.812Z,102016.91
2022-10-09T15:20:55.903Z,102018.88
2022-10-09T15:23:42.978Z,102009.31
2022-10-09T15:26:32.927Z,102010.31
2022-10-09T15:29:19.358Z,102013.22
2022-10-09T15:32:06.229Z,102001.03
2022-10-09T15:34:52.883Z,102006.56
2022-10-09T15:37:41.122Z,102011.13
2022-10-09T15:40:28.411Z,102011.28
2022-10-09T15:43:16.244Z,102006.03
2022-10-09T15:46:04.054Z,101996.59
2022-10-09T15:48:51.136Z,102005.53
2022-10-09T15:51:38.011Z,101991.56
2022-10-09T15:54:25.991Z,102004.13
2022-10-09T15:57:12.695Z,101999.81
2022-10-09T15:59:59.458Z,102001.72
2022-10-09T16:02:46.153Z,101993.91
2022-10-09T16:05:38.050Z,102003.69
2022-10-09T16:08:24.368Z,102004.84
2022-10-09T16:11:14.780Z,101998.00
2022-10-09T16:14:01.854Z,102001.63
2022-10-09T16:16:51.477Z,102004.44
2022-10-09T16:19:37.839Z,101999.25
2022-10-09T16:22:24.573Z,101997.69
2022-10-09T16:25:12.591Z,102001.34
2022-10-09T16:28:00.393Z,101998.00
2022-10-09T16:30:47.122Z,101999.00
2022-10-09T16:33:34.493Z,101997.31
2022-10-09T16:36:21.322Z,102011.50
2022-10-09T16:39:07.954Z,102015.97
2022-10-09T16:41:54.756Z,102015.22
2022-10-09T16:44:43.153Z,102009.97
2022-10-09T16:47:29.991Z,102007.41
2022-10-09T16:50:17.704Z,102006.63
2022-10-09T16:53:04.309Z,102005.84
2022-10-09T16:55:51.007Z,102002.41
2022-10-09T16:58:37.834Z,102001.56
2022-10-09T17:01:27.310Z,102003.38
2022-10-09T17:04:14.994Z,102006.03
2022-10-09T17:07:01.556Z,102000.78
2022-10-09T17:09:48.135Z,101996.44
2022-10-09T17:12:35.079Z,102000.88
2022-10-09T17:15:22.378Z,102002.69
2022-10-09T17:18:10.652Z,102002.72
2022-10-09T17:20:57.297Z,101994.81
2022-10-09T17:23:44.139Z,101996.69
2022-10-09T17:26:31.155Z,101998.41
2022-10-09T17:29:18.028Z,101990.47
2022-10-09T17:32:07.045Z,101991.41
2022-10-09T17:34:57.223Z,101992.31
2022-10-09T17:37:44.366Z,101986.19
2022-10-09T17:40:31.309Z,101992.38
2022-10-09T17:43:18.385Z,101989.75
2022-10-09T17:46:05.847Z,101983.56
2022-10-09T17:48:53.548Z,101988.88
2022-10-09T17:51:44.163Z,101996.78
2022-10-09T17:54:30.772Z,101999.44
2022-10-09T17:57:17.492Z,101991.53
2022-10-09T18:00:05.347Z,101990.63
2022-10-09T18:02:52.191Z,101995.03
2022-10-09T18:05:42.114Z,101988.91
2022-10-09T18:08:31.670Z,101999.47
2022-10-09T18:11:18.179Z,101998.59
2022-10-09T18:14:05.132Z,101988.94
2022-10-09T18:16:53.764Z,101981.94
2022-10-09T18:19:41.505Z,101983.69
2022-10-09T18:22:28.340Z,101984.59
2022-10-09T18:25:16.610Z,101983.69
2022-10-09T18:28:03.663Z,101978.44
2022-10-09T18:30:50.409Z,101974.91
2022-10-09T18:33:37.577Z,101977.53
2022-10-09T18:36:25.949Z,101975.78
2022-10-09T18:39:15.726Z,101967.88
2022-10-09T18:42:04.468Z,101971.38
2022-10-09T18:44:51.470Z,101966.13
2022-10-09T18:47:38.456Z,101964.34
2022-10-09T18:50:26.370Z,101959.06
2022-10-09T18:53:13.837Z,101960.81
2022-10-09T18:56:00.947Z,101956.41
2022-10-09T18:58:50.838Z,101960.78
2022-10-09T19:01:37.884Z,101954.63
2022-10-09T19:04:24.778Z,101956.41
2022-10-09T19:07:11.583Z,101957.28
2022-10-09T19:09:58.325Z,101955.53
2022-10-09T19:12:45.382Z,101943.22
2022-10-09T19:15:33.558Z,101944.06
2022-10-09T19:18:20.794Z,101941.44
2022-10-09T19:21:13.836Z,101937.00
2022-10-09T19:24:03.586Z,101933.47
2022-10-09T19:26:50.273Z,101936.09
2022-10-09T19:29:37.226Z,101916.72
2022-10-09T19:32:25.704Z,101934.28
2022-10-09T19:35:12.132Z,101929.03
2022-10-09T19:37:58.868Z,101922.91
2022-10-09T19:40:47.155Z,101927.28
2022-10-09T19:43:34.184Z,101928.13
2022-10-09T19:46:22.773Z,101928.13
2022-10-09T19:49:10.716Z,101930.72
2022-10-09T19:51:57.263Z,101935.09
2022-10-09T19:54:43.935Z,101935.91
2022-10-09T19:57:30.691Z,101929.75
2022-10-09T20:00:17.852Z,101933.22
2022-10-09T20:03:04.356Z,101931.41
2022-10-09T20:05:52.900Z,101928.78
2022-10-09T20:08:41.447Z,101926.13
2022-10-09T20:11:28.442Z,101926.16
2022-10-09T20:14:16.081Z,101925.31
2022-10-09T20:17:02.601Z,101919.19
2022-10-09T20:19:49.636Z,101909.56
2022-10-09T20:22:37.593Z,101917.44
2022-10-09T20:25:24.542Z,101920.00
2022-10-09T20:28:11.165Z,101917.34
2022-10-09T20:30:58.539Z,101913.81
2022-10-09T20:33:46.256Z,101897.94
2022-10-09T20:36:36.091Z,101904.13
2022-10-09T20:39:23.928Z,101898.84
2022-10-09T20:42:10.848Z,101897.06
2022-10-09T20:44:57.549Z,101904.97
2022-10-09T20:47:45.053Z,101899.66
2022-10-09T20:50:31.557Z,101897.88
2022-10-09T20:53:18.252Z,101895.25
2022-10-09T20:56:09.090Z,101888.22
2022-10-09T20:58:56.221Z,101890.84
2022-10-09T21:01:43.274Z,101892.56
2022-10-09T21:04:31.542Z,101892.56
2022-10-09T21:07:18.143Z,101891.69
2022-10-09T21:10:05.419Z,101886.44
2022-10-09T21:12:53.652Z,101889.03
2022-10-09T21:15:43.788Z,101887.28
2022-10-09T21:18:30.511Z,101886.38
2022-10-09T21:21:19.357Z,101881.09
2022-10-09T21:24:06.247Z,101881.09
2022-10-09T21:26:52.601Z,101874.97
2022-10-09T21:29:41.439Z,101872.31
2022-10-09T21:32:28.942Z,101865.31
2022-10-09T21:35:16.680Z,101865.28
2022-10-09T21:38:03.377Z,101871.41
2022-10-09T21:40:50.659Z,101867.00
2022-10-09T21:43:37.327Z,101860.88
2022-10-09T21:46:25.670Z,101862.63
2022-10-09T21:49:20.204Z,101867.00
2022-10-09T21:52:06.564Z,101860.00
2022-10-09T21:54:53.296Z,101856.50
2022-10-09T21:57:40.024Z,101856.59
2022-10-09T22:00:26.847Z,101852.28
2022-10-09T22:03:15.017Z,101852.25
2022-10-09T22:06:04.522Z,101856.69
2022-10-09T22:08:51.073Z,101847.19
2022-10-09T22:11:38.051Z,101844.56
2022-10-09T22:14:24.997Z,101842.84
2022-10-09T22:17:11.932Z,101848.19
2022-10-09T22:19:59.933Z,101845.69
2022-10-09T22:22:46.844Z,101843.97
2022-10-09T22:25:34.555Z,101842.25
2022-10-09T22:28:21.398Z,101840.53
2022-10-09T22:31:12.270Z,101835.25
2022-10-09T22:34:02.660Z,101830.81
2022-10-09T22:36:50.640Z,101835.22
2022-10-09T22:39:37.452Z,101833.41
2022-10-09T22:42:24.658Z,101831.63
2022-10-09T22:45:11.836Z,101827.16
2022-10-09T22:47:59.473Z,101824.47
2022-10-09T22:50:46.643Z,101819.16
2022-10-09T22:53:35.659Z,101813.75
2022-10-09T22:56:24.437Z,101814.72
2022-10-09T22:59:14.554Z,101802.34
2022-10-09T23:02:01.465Z,101809.34
2022-10-09T23:04:47.912Z,101810.25
2022-10-09T23:07:34.651Z,101811.97
2022-10-09T23:10:22.769Z,101803.16
2022-10-09T23:13:09.528Z,101795.22
2022-10-09T23:15:56.365Z,101803.03
2022-10-09T23:18:44.200Z,101791.50
2022-10-09T23:21:30.771Z,101784.47
2022-10-09T23:24:18.140Z,101784.44
2022-10-09T23:27:06.252Z,101783.56
2022-10-09T23:29:53.188Z,101779.13
2022-10-09T23:32:39.818Z,101769.44
2022-10-09T23:35:26.798Z,101775.63
2022-10-09T23:38:13.715Z,101775.63
2022-10-09T23:41:02.313Z,101778.28
2022-10-09T23:43:50.650Z,101774.63
2022-10-09T23:46:37.855Z,101777.28
2022-10-09T23:49:24.354Z,101773.69
2022-10-09T23:52:11.315Z,101775.50
2022-10-09T23:54:58.067Z,101763.09
2022-10-09T23:57:45.055Z,101774.56
